»·PEaware :: N9574A KHND-KAPA

N9574A :: KHND-KAPA

FLIGHT INFORMATION

Flight Status: Arrived
Operator: Privately registered:
United States
More flights under this callsign
Pilot: Mitch R. (11204)
Aircraft: Unknown
(EA55)
More flights by this aircraft type
Origin: KHND Henderson
United States
Destination: KAPA Centennial
United States
More flights between these airports :: More routes between these airports
Route: +ACSIN5 DVC HBU VRAIN ZOMBZ1
File this flight plan on PilotEdge
Remarks:
Altitude:
(Current/Filed)
27,000ft
Speed:
(Current/Filed)
360kts
Departed: 21-Dec-17 01:12 PM
Arrived: 21-Dec-17 03:07 PM
Distance/Time
Traveled:
533nm/1:55
Distance/Time
To Go:
Arrived

Flight Plot

Page will automatically refresh every two minutes.

Flight plan parsing failed; only flown route is shown


Map Options




Map Legend


Flown Route
Filed Route
Departure Airport
Arrival Airport
Navaid (VOR, NDB)
Fix

Horizontal Profiles

Position Reports

Time Latitude Longitude Heading Altitude Ground
Speed
21-Dec-17 13:06 35.978134 -115.137383 359 2446ft 0kts
21-Dec-17 13:07 35.978134 -115.137383 359 2446ft 0kts
21-Dec-17 13:08 35.978134 -115.137383 359 2446ft 0kts
21-Dec-17 13:09 35.978134 -115.137383 359 2446ft 0kts
21-Dec-17 13:10 35.978134 -115.137383 359 2446ft 0kts
21-Dec-17 13:11 35.978134 -115.137383 359 2446ft 0kts
21-Dec-17 13:12 35.978134 -115.137383 359 2446ft 0kts
21-Dec-17 13:13 35.978242 -115.137335 40 2446ft 0kts
21-Dec-17 13:14 35.978273 -115.137298 37 2446ft 0kts
21-Dec-17 13:15 35.979363 -115.136871 359 2446ft 8kts
21-Dec-17 13:16 35.980710 -115.136831 18 2446ft 0kts
21-Dec-17 13:17 35.980833 -115.136036 90 2446ft 8kts
21-Dec-17 13:18 35.972014 -115.135430 181 2446ft 126kts
21-Dec-17 13:19 35.938032 -115.145947 209 4094ft 179kts
21-Dec-17 13:20 35.878476 -115.157757 176 7417ft 209kts
21-Dec-17 13:21 35.835428 -115.126928 109 10398ft 196kts
21-Dec-17 13:22 35.813566 -115.066426 105 12788ft 210kts
21-Dec-17 13:23 35.794752 -115.011414 103 14685ft 219kts
21-Dec-17 13:24 35.786207 -114.931068 75 17172ft 211kts
21-Dec-17 13:25 35.789054 -114.862627 74 18909ft 226kts
21-Dec-17 13:26 35.794734 -114.789691 59 19443ft 268kts
21-Dec-17 13:27 35.823633 -114.708554 54 21547ft 258kts
21-Dec-17 13:28 35.853389 -114.629451 53 23182ft 264kts
21-Dec-17 13:29 35.890286 -114.560340 21 24993ft 229kts
21-Dec-17 13:30 35.942665 -114.519104 19 26607ft 225kts
21-Dec-17 13:31 35.997918 -114.477640 20 27157ft 260kts
21-Dec-17 13:32 36.063465 -114.429056 21 27155ft 302kts
21-Dec-17 13:33 36.121391 -114.355715 40 27166ft 347kts
21-Dec-17 13:34 36.177569 -114.269411 42 27157ft 349kts
21-Dec-17 13:35 36.220063 -114.161901 58 27136ft 373kts
21-Dec-17 13:36 36.258064 -114.046939 58 27105ft 373kts
21-Dec-17 13:37 36.295435 -113.932139 58 27105ft 373kts
21-Dec-17 13:38 36.333292 -113.815093 58 27105ft 373kts
21-Dec-17 13:39 36.366863 -113.695505 62 27106ft 376kts
21-Dec-17 13:40 36.398132 -113.576276 62 27098ft 377kts
21-Dec-17 13:41 36.428873 -113.458273 62 27105ft 376kts
21-Dec-17 13:42 36.457701 -113.347105 63 27076ft 377kts
21-Dec-17 13:43 36.479677 -113.262010 63 27048ft 377kts
21-Dec-17 13:44 36.504239 -113.166131 62 27047ft 360kts
21-Dec-17 13:45 36.531607 -113.059700 62 27047ft 358kts
21-Dec-17 13:46 36.558308 -112.955183 62 27047ft 358kts
21-Dec-17 13:47 36.587120 -112.841855 62 27047ft 357kts
21-Dec-17 13:48 36.616722 -112.724873 62 27047ft 356kts
21-Dec-17 13:49 36.646012 -112.608579 62 27047ft 356kts
21-Dec-17 13:50 36.673647 -112.498360 62 27046ft 356kts
21-Dec-17 13:51 36.701846 -112.385395 62 27046ft 356kts
21-Dec-17 13:52 36.729541 -112.273950 62 27043ft 356kts
21-Dec-17 13:53 36.758417 -112.157227 62 27010ft 356kts
21-Dec-17 13:54 36.784466 -112.051444 62 26962ft 356kts
21-Dec-17 13:55 36.810944 -111.943054 61 26960ft 360kts
21-Dec-17 13:56 36.839308 -111.827623 61 26964ft 387kts
21-Dec-17 13:57 36.870859 -111.697627 62 26966ft 407kts
21-Dec-17 13:58 36.902876 -111.564831 62 26967ft 408kts
21-Dec-17 13:59 36.934755 -111.432354 55 26955ft 402kts
21-Dec-17 14:00 36.978145 -111.316524 54 26958ft 399kts
21-Dec-17 14:01 37.023490 -111.191987 54 26958ft 400kts
21-Dec-17 14:02 37.066800 -111.071815 54 26959ft 401kts
21-Dec-17 14:03 37.106262 -110.961763 55 26969ft 401kts
21-Dec-17 14:04 37.139283 -110.869335 55 26973ft 401kts
21-Dec-17 14:05 37.178721 -110.758584 55 26974ft 401kts
21-Dec-17 14:06 37.220373 -110.641195 55 26975ft 402kts
21-Dec-17 14:07 37.264420 -110.516533 55 26976ft 403kts
21-Dec-17 14:08 37.307693 -110.393453 54 26978ft 400kts
21-Dec-17 14:09 37.349510 -110.274225 55 26965ft 402kts
21-Dec-17 14:10 37.391647 -110.153525 55 26966ft 403kts
21-Dec-17 14:11 37.434632 -110.029903 55 26967ft 405kts
21-Dec-17 14:12 37.478450 -109.903962 57 26968ft 419kts
21-Dec-17 14:13 37.523553 -109.773127 61 26972ft 441kts
21-Dec-17 14:14 37.568501 -109.641622 61 26973ft 443kts
21-Dec-17 14:15 37.615125 -109.505067 61 26976ft 444kts
21-Dec-17 14:16 37.662398 -109.365982 61 26999ft 444kts
21-Dec-17 14:17 37.708328 -109.230175 64 26989ft 447kts
21-Dec-17 14:18 37.751929 -109.100611 62 26992ft 446kts
21-Dec-17 14:19 37.792050 -108.981261 62 26991ft 447kts
21-Dec-17 14:20 37.833171 -108.861865 61 26946ft 448kts
21-Dec-17 14:21 37.880221 -108.727179 61 26945ft 448kts
21-Dec-17 14:22 37.926159 -108.595145 61 26948ft 449kts
21-Dec-17 14:23 37.972377 -108.461774 62 26951ft 450kts
21-Dec-17 14:24 38.017232 -108.331720 63 26935ft 450kts
21-Dec-17 14:25 38.058332 -108.212075 63 26937ft 452kts
21-Dec-17 14:26 38.104618 -108.076694 63 26872ft 452kts
21-Dec-17 14:27 38.147026 -107.952128 63 26858ft 452kts
21-Dec-17 14:28 38.192586 -107.817697 63 26860ft 453kts
21-Dec-17 14:29 38.239414 -107.678939 64 26910ft 453kts
21-Dec-17 14:30 38.286461 -107.538726 64 26919ft 453kts
21-Dec-17 14:31 38.333110 -107.399199 64 26922ft 454kts
21-Dec-17 14:32 38.376453 -107.268804 65 26832ft 455kts
21-Dec-17 14:33 38.422413 -107.129947 65 26803ft 455kts
21-Dec-17 14:34 38.447057 -107.003129 97 26802ft 439kts
21-Dec-17 14:35 38.443402 -106.883055 97 26806ft 451kts
21-Dec-17 14:36 38.438459 -106.766713 101 26807ft 436kts
21-Dec-17 14:37 38.432216 -106.646354 101 26809ft 437kts
21-Dec-17 14:38 38.424563 -106.501955 101 26834ft 437kts
21-Dec-17 14:39 38.416558 -106.354361 101 26856ft 438kts
21-Dec-17 14:40 38.408830 -106.214838 102 26905ft 436kts
21-Dec-17 14:41 38.414190 -106.103705 67 26920ft 457kts
21-Dec-17 14:42 38.483112 -106.001082 34 26940ft 453kts
21-Dec-17 14:43 38.576318 -105.905726 34 26940ft 454kts
21-Dec-17 14:44 38.670343 -105.808964 34 25089ft 442kts
21-Dec-17 14:45 38.762441 -105.714329 39 23150ft 418kts
21-Dec-17 14:46 38.840126 -105.620173 43 21201ft 362kts
21-Dec-17 14:47 38.908982 -105.536152 43 19487ft 342kts
21-Dec-17 14:48 38.975641 -105.454878 43 18017ft 331kts
21-Dec-17 14:49 39.030064 -105.388037 43 16994ft 325kts
21-Dec-17 14:50 39.084297 -105.321263 43 15991ft 321kts
21-Dec-17 14:51 39.136999 -105.256403 43 14997ft 315kts
21-Dec-17 14:52 39.182128 -105.200738 45 14811ft 316kts
21-Dec-17 14:53 39.193290 -105.123922 92 13688ft 296kts
21-Dec-17 14:54 39.190102 -105.051214 102 12729ft 276kts
21-Dec-17 14:55 39.178333 -104.979172 103 11892ft 274kts
21-Dec-17 14:56 39.188321 -104.896907 69 10966ft 250kts
21-Dec-17 14:57 39.227475 -104.841755 7 10269ft 232kts
21-Dec-17 14:58 39.268634 -104.838626 358 9273ft 216kts
21-Dec-17 14:59 39.301520 -104.839098 357 9007ft 190kts
21-Dec-17 15:00 39.328554 -104.839942 357 8989ft 152kts
21-Dec-17 15:01 39.354911 -104.841039 357 8990ft 150kts
21-Dec-17 15:02 39.379543 -104.842145 358 9000ft 148kts
21-Dec-17 15:03 39.403066 -104.843147 358 8801ft 139kts
21-Dec-17 15:04 39.425007 -104.844360 357 8345ft 133kts
21-Dec-17 15:05 39.445736 -104.845117 358 8050ft 132kts
21-Dec-17 15:06 39.465688 -104.845989 359 7665ft 125kts
21-Dec-17 15:07 39.484758 -104.846606 358 7282ft 121kts
21-Dec-17 15:08 39.503122 -104.847865 359 6887ft 120kts
21-Dec-17 15:09 39.520353 -104.848689 359 6585ft 116kts
21-Dec-17 15:10 39.536855 -104.849367 359 6250ft 109kts
21-Dec-17 15:11 39.551478 -104.849967 358 5948ft 101kts
21-Dec-17 15:12 39.564743 -104.850574 359 5825ft 78kts
21-Dec-17 15:13 39.572903 -104.850250 27 5825ft 37kts
21-Dec-17 15:14 39.575820 -104.848558 29 5825ft 22kts

Navigation Log

Ident Type
Flight plan parsing failed, navigation log unavailable